Tiona, New York
Current Conditions -  °F | °C
As of 3:53 AM on Wednesday 28 Jan 2015 (Local Time) from KBGM Reporting Station
Clear Clear  
Wind Chill: -22°   Ceiling: Unl
Heat Index: -13°   Visibility: 10mi
Dew Point: -17°   Wind: 14mph
Humidity: 76%   Direction: 330°NNW
Pressure: 29.91"   Gusts: NA
Location:  42.2341°N, 76.1713°W
Report Text: KBGM 280853Z AUTO 33012KT 10SM CLR M13/M17 A2991 RMK AO2 SLP161 T11331167 51009
Loading
Personal Weather Stations






























Interactive Weather Map New forecast layout! Learn more

10-Day Weather Forecast

Advertisements
Track Severe Weather on mobile